Kindred, North Dakota
Current Conditions -  °F | °C
As of 9:53 AM on Friday 21 Nov 2014 (Local Time) from KFAR Reporting Station
Clear Clear  
Wind Chill:   Ceiling: Unl
Heat Index: 22°   Visibility: 10mi
Dew Point: 14°   Wind: 18mph
Humidity: 72%   Direction: 170°S
Pressure: 29.85"   Gusts: 28mph
Location:  46.65°N, 97.02°W
Report Text: KFAR 211553Z 17016G24KT 10SM CLR M06/M10 A2985 RMK AO2 SLP126 T10561100
Loading
Personal Weather Stations






























Interactive Weather Map New forecast layout! Learn more

10-Day Weather Forecast

Advertisements
Track Severe Weather on mobile